Time;durP1;ratioP1;P1;durP2;ratioP2;P2;SDS_P1;SDS_P2;PMS_P1;PMS_P2;Temp;Humidity;BMP_temperature;BMP_pressure;BME280_temperature;BME280_humidity;BME280_pressure;Samples;Min_cycle;Max_cycle;Signal;HPM_P1;HPM_P2
2022/03/18 00:00:07;;;;;;;13.40;3.80;;;;;;;;;;5017806;28;20824;-67
2022/03/18 00:02:32;;;;;;;16.43;3.63;;;;;;;;;;5012825;28;20454;-67
2022/03/18 00:04:58;;;;;;;17.40;3.70;;;;;;;;;;5015724;28;20454;-67
2022/03/18 00:07:23;;;;;;;8.00;3.87;;;;;;;;;;5014465;28;20185;-67
2022/03/18 00:09:49;;;;;;;11.27;3.70;;;;;;;;;;5013764;28;20230;-67
2022/03/18 00:12:15;;;;;;;13.60;3.93;;;;;;;;;;5016708;28;20200;-66
2022/03/18 00:14:40;;;;;;;8.60;3.97;;;;;;;;;;5013810;28;20438;-68
2022/03/18 00:17:08;;;;;;;17.07;3.50;;;;;;;;;;5018217;28;20184;-68
2022/03/18 00:19:38;;;;;;;15.83;4.23;;;;;;;;;;5015625;28;20177;-68
2022/03/18 00:22:03;;;;;;;13.70;3.50;;;;;;;;;;5015612;28;20975;-67
2022/03/18 00:24:32;;;;;;;12.10;3.90;;;;;;;;;;5010302;28;20466;-68
2022/03/18 00:26:58;;;;;;;13.80;4.07;;;;;;;;;;5019285;28;20180;-69
2022/03/18 00:29:26;;;;;;;11.93;4.00;;;;;;;;;;5018273;28;20436;-67
2022/03/18 00:31:53;;;;;;;15.77;3.87;;;;;;;;;;5014054;28;20466;-68
2022/03/18 00:34:18;;;;;;;13.70;3.90;;;;;;;;;;5014533;28;20428;-69
2022/03/18 00:36:44;;;;;;;16.17;4.10;;;;;;;;;;5013292;28;20489;-68
2022/03/18 00:39:10;;;;;;;17.43;4.37;;;;;;;;;;5014951;28;20404;-68
2022/03/18 00:41:35;;;;;;;15.40;4.00;;;;;;;;;;5013886;28;20458;-68
2022/03/18 00:44:01;;;;;;;12.80;4.00;;;;;;;;;;5017900;28;20616;-68
2022/03/18 00:46:26;;;;;;;14.13;3.87;;;;;;;;;;5012290;28;20180;-68
2022/03/18 00:54:20;;;;;;;13.20;3.90;;;;;;;;;;5016369;28;20946;-68
2022/03/18 00:56:45;;;;;;;12.33;3.70;;;;;;;;;;5013850;28;20439;-68
2022/03/18 00:59:10;;;;;;;14.43;3.80;;;;;;;;;;5018043;28;20176;-68
2022/03/18 01:01:36;;;;;;;11.67;3.73;;;;;;;;;;5014100;28;20204;-68
2022/03/18 01:04:02;;;;;;;8.80;3.40;;;;;;;;;;5014389;28;20197;-68
2022/03/18 01:06:27;;;;;;;12.80;3.40;;;;;;;;;;5013623;28;20721;-68
2022/03/18 01:08:53;;;;;;;13.60;4.87;;;;;;;;;;5014487;28;20169;-69
2022/03/18 01:11:18;;;;;;;6.30;3.73;;;;;;;;;;5016372;28;20232;-68
2022/03/18 01:13:43;;;;;;;7.97;3.40;;;;;;;;;;5014333;28;21541;-68
2022/03/18 01:16:09;;;;;;;12.33;3.87;;;;;;;;;;5015819;28;20275;-67
2022/03/18 01:18:34;;;;;;;10.50;3.67;;;;;;;;;;5014383;28;20200;-67
2022/03/18 01:21:00;;;;;;;9.40;3.77;;;;;;;;;;5015977;28;20203;-69
2022/03/18 01:23:25;;;;;;;17.83;3.63;;;;;;;;;;5016618;28;20208;-68
2022/03/18 01:25:51;;;;;;;11.43;3.60;;;;;;;;;;5012748;28;20173;-68
2022/03/18 01:28:16;;;;;;;8.53;3.67;;;;;;;;;;5017259;28;20475;-69
2022/03/18 01:30:41;;;;;;;10.73;3.50;;;;;;;;;;5018489;28;20218;-68
2022/03/18 01:33:07;;;;;;;12.80;3.00;;;;;;;;;;5030667;22;20322;-65
2022/03/18 01:35:32;;;;;;;9.00;3.17;;;;;;;;;;5031570;28;21088;-65
2022/03/18 01:37:57;;;;;;;13.27;4.40;;;;;;;;;;5022261;28;20188;-65
2022/03/18 01:40:23;;;;;;;10.67;3.50;;;;;;;;;;5019841;28;20267;-65
2022/03/18 01:42:48;;;;;;;11.13;3.53;;;;;;;;;;5018758;28;20208;-65
2022/03/18 01:45:13;;;;;;;6.13;3.27;;;;;;;;;;5020484;28;20234;-65
2022/03/18 01:47:45;;;;;;;10.50;3.70;;;;;;;;;;5022651;28;20180;-65
2022/03/18 01:50:11;;;;;;;17.30;4.87;;;;;;;;;;5018644;28;20169;-65
2022/03/18 01:52:37;;;;;;;7.80;3.40;;;;;;;;;;5019812;28;20462;-65
2022/03/18 01:55:02;;;;;;;8.77;3.97;;;;;;;;;;5018191;28;20876;-65
2022/03/18 01:57:28;;;;;;;8.03;3.13;;;;;;;;;;5019400;28;21073;-65
2022/03/18 01:59:53;;;;;;;8.93;3.80;;;;;;;;;;5021759;28;20180;-65
2022/03/18 02:02:19;;;;;;;13.97;4.00;;;;;;;;;;5020243;28;20204;-65
2022/03/18 02:04:45;;;;;;;11.00;4.20;;;;;;;;;;5016761;28;20243;-65
2022/03/18 02:07:10;;;;;;;8.20;3.40;;;;;;;;;;5018597;28;20640;-65
2022/03/18 02:09:36;;;;;;;12.57;4.13;;;;;;;;;;5020696;28;20206;-65
2022/03/18 02:12:02;;;;;;;11.53;3.53;;;;;;;;;;5016563;28;20218;-65
2022/03/18 02:14:30;;;;;;;13.93;4.00;;;;;;;;;;5017960;28;20435;-65
2022/03/18 02:16:56;;;;;;;5.50;3.90;;;;;;;;;;5017864;28;20234;-65
2022/03/18 02:19:21;;;;;;;12.57;3.87;;;;;;;;;;5016900;28;20443;-64
2022/03/18 02:21:47;;;;;;;10.40;4.10;;;;;;;;;;5018106;28;25733;-65
2022/03/18 02:24:13;;;;;;;12.90;5.03;;;;;;;;;;5018239;28;20225;-65
2022/03/18 02:26:38;;;;;;;9.83;3.50;;;;;;;;;;5019113;28;20524;-65
2022/03/18 02:29:03;;;;;;;11.63;3.73;;;;;;;;;;5019106;28;20189;-65
2022/03/18 02:31:30;;;;;;;10.50;3.90;;;;;;;;;;5017719;28;20238;-65
2022/03/18 02:33:56;;;;;;;10.03;3.50;;;;;;;;;;5017871;28;20176;-65
2022/03/18 02:36:21;;;;;;;12.00;3.87;;;;;;;;;;5018921;28;20844;-65
2022/03/18 02:38:46;;;;;;;9.23;4.07;;;;;;;;;;5016742;28;20188;-65
2022/03/18 02:41:12;;;;;;;12.20;4.00;;;;;;;;;;5021876;28;20191;-65
2022/03/18 02:43:38;;;;;;;9.00;3.70;;;;;;;;;;5020043;28;20605;-65
2022/03/18 02:46:03;;;;;;;9.90;3.43;;;;;;;;;;5018619;28;21089;-65
2022/03/18 02:48:29;;;;;;;9.50;3.03;;;;;;;;;;5017422;28;20497;-65
2022/03/18 02:50:54;;;;;;;7.90;3.77;;;;;;;;;;5019344;28;20222;-65
2022/03/18 02:53:19;;;;;;;10.03;4.23;;;;;;;;;;5019304;28;20204;-65
2022/03/18 02:55:45;;;;;;;9.13;4.30;;;;;;;;;;5020593;28;20185;-65
2022/03/18 02:58:10;;;;;;;9.10;4.20;;;;;;;;;;5020424;28;20279;-65
2022/03/18 03:00:36;;;;;;;10.80;4.63;;;;;;;;;;5021578;28;20192;-65
2022/03/18 03:03:01;;;;;;;8.97;3.70;;;;;;;;;;5021278;28;20216;-65
2022/03/18 03:08:10;;;;;;;11.37;4.60;;;;;;;;;;5023928;28;20214;-65
2022/03/18 03:10:39;;;;;;;8.33;3.67;;;;;;;;;;5022871;28;20994;-65
2022/03/18 03:13:06;;;;;;;10.63;5.23;;;;;;;;;;5023151;28;20192;-65
2022/03/18 03:15:31;;;;;;;10.77;4.00;;;;;;;;;;5021241;28;20462;-65
2022/03/18 03:17:57;;;;;;;7.40;3.47;;;;;;;;;;5025191;28;20927;-65
2022/03/18 03:20:22;;;;;;;11.13;4.03;;;;;;;;;;5019133;28;20272;-65
2022/03/18 03:22:48;;;;;;;15.67;4.90;;;;;;;;;;5019701;28;20348;-65
2022/03/18 03:25:13;;;;;;;9.23;4.03;;;;;;;;;;5022296;28;20216;-65
2022/03/18 03:27:38;;;;;;;7.23;4.03;;;;;;;;;;5023273;28;20267;-65
2022/03/18 03:30:05;;;;;;;6.90;3.60;;;;;;;;;;5019000;28;20280;-64
2022/03/18 03:32:31;;;;;;;11.40;4.80;;;;;;;;;;5023056;28;20645;-65
2022/03/18 03:34:57;;;;;;;11.77;5.17;;;;;;;;;;5021307;28;20530;-65
2022/03/18 03:37:23;;;;;;;12.90;4.13;;;;;;;;;;5021555;28;20198;-65
2022/03/18 03:39:50;;;;;;;13.37;4.70;;;;;;;;;;5023806;28;21100;-65
2022/03/18 03:42:15;;;;;;;12.10;4.57;;;;;;;;;;5022559;28;20455;-65
2022/03/18 03:44:41;;;;;;;8.10;3.60;;;;;;;;;;5022574;28;20829;-65
2022/03/18 03:47:06;;;;;;;7.30;4.17;;;;;;;;;;5019490;28;20878;-65
2022/03/18 03:49:32;;;;;;;11.83;4.80;;;;;;;;;;5021946;28;20185;-65
2022/03/18 03:51:57;;;;;;;11.60;4.70;;;;;;;;;;5023974;28;20665;-65
2022/03/18 03:54:23;;;;;;;12.03;4.40;;;;;;;;;;5019925;28;20176;-65
2022/03/18 03:56:49;;;;;;;8.87;4.00;;;;;;;;;;5022830;28;20245;-65
2022/03/18 03:59:14;;;;;;;9.83;3.43;;;;;;;;;;5020835;28;20443;-65
2022/03/18 04:01:40;;;;;;;9.37;3.97;;;;;;;;;;5014378;28;22753;-65
2022/03/18 04:04:05;;;;;;;11.67;5.00;;;;;;;;;;5021385;28;20605;-65
2022/03/18 04:06:31;;;;;;;10.33;4.67;;;;;;;;;;5022189;28;20196;-65
2022/03/18 04:08:56;;;;;;;14.27;4.60;;;;;;;;;;5021205;28;20232;-65
2022/03/18 04:11:21;;;;;;;8.30;3.77;;;;;;;;;;5019795;28;20435;-65
2022/03/18 04:13:47;;;;;;;10.57;4.07;;;;;;;;;;5022763;28;20180;-65
2022/03/18 04:16:12;;;;;;;8.10;3.90;;;;;;;;;;5020401;28;20184;-65
2022/03/18 04:18:37;;;;;;;13.10;4.03;;;;;;;;;;5020617;28;20189;-65
2022/03/18 04:21:03;;;;;;;8.70;3.83;;;;;;;;;;5020022;28;20184;-65
2022/03/18 04:23:28;;;;;;;9.13;3.70;;;;;;;;;;5020402;28;20566;-65
2022/03/18 04:25:53;;;;;;;8.73;3.77;;;;;;;;;;5020356;28;20180;-65
2022/03/18 04:28:18;;;;;;;8.60;4.30;;;;;;;;;;5020725;28;20172;-65
2022/03/18 04:30:44;;;;;;;11.33;4.10;;;;;;;;;;5019409;28;20215;-65
2022/03/18 04:33:09;;;;;;;11.20;5.00;;;;;;;;;;5017558;28;20215;-65
2022/03/18 04:35:34;;;;;;;11.03;4.60;;;;;;;;;;5019762;28;20177;-65
2022/03/18 04:38:00;;;;;;;6.77;3.90;;;;;;;;;;5019245;28;20534;-64
2022/03/18 04:40:26;;;;;;;10.07;4.50;;;;;;;;;;5021275;28;20301;-65
2022/03/18 04:42:51;;;;;;;9.23;4.40;;;;;;;;;;5021121;28;20647;-65
2022/03/18 04:45:16;;;;;;;10.30;4.20;;;;;;;;;;5019730;28;20594;-65
2022/03/18 04:47:42;;;;;;;9.73;3.93;;;;;;;;;;5023125;28;20753;-65
2022/03/18 04:50:08;;;;;;;9.10;5.17;;;;;;;;;;5021801;28;20202;-64
2022/03/18 04:52:33;;;;;;;7.60;4.37;;;;;;;;;;5022555;28;20446;-65
2022/03/18 04:54:59;;;;;;;8.23;4.47;;;;;;;;;;5019125;28;20183;-65
2022/03/18 04:57:25;;;;;;;9.60;4.67;;;;;;;;;;5022861;28;20398;-65
2022/03/18 04:59:55;;;;;;;12.03;5.20;;;;;;;;;;5019763;28;20180;-65
2022/03/18 05:02:20;;;;;;;7.77;5.03;;;;;;;;;;5018417;28;22664;-65
2022/03/18 05:04:48;;;;;;;10.30;4.47;;;;;;;;;;5020844;28;20466;-65
2022/03/18 05:07:14;;;;;;;14.77;5.07;;;;;;;;;;5024039;28;20173;-65
2022/03/18 05:09:40;;;;;;;10.70;4.60;;;;;;;;;;5021651;28;20478;-65
2022/03/18 05:12:09;;;;;;;14.03;5.33;;;;;;;;;;5018058;28;20482;-65
2022/03/18 05:14:35;;;;;;;16.17;4.90;;;;;;;;;;5021897;28;20276;-64
2022/03/18 05:17:01;;;;;;;16.80;4.87;;;;;;;;;;5020488;28;20442;-65
2022/03/18 05:19:26;;;;;;;9.37;5.10;;;;;;;;;;5020555;28;20554;-64
2022/03/18 05:21:52;;;;;;;7.67;4.90;;;;;;;;;;5009266;28;20215;-64
2022/03/18 05:24:17;;;;;;;7.43;4.63;;;;;;;;;;5020499;28;20250;-64
2022/03/18 05:26:43;;;;;;;9.57;6.00;;;;;;;;;;5019922;28;20177;-64
2022/03/18 05:29:09;;;;;;;11.80;6.30;;;;;;;;;;5024990;28;20181;-64
2022/03/18 05:31:35;;;;;;;13.33;6.53;;;;;;;;;;5020294;28;20196;-65
2022/03/18 05:34:01;;;;;;;11.40;7.10;;;;;;;;;;5015539;28;20534;-65
2022/03/18 05:36:26;;;;;;;12.87;6.67;;;;;;;;;;5017707;28;20529;-65
2022/03/18 05:38:52;;;;;;;10.40;5.90;;;;;;;;;;5015369;28;20445;-65
2022/03/18 05:41:17;;;;;;;12.70;5.10;;;;;;;;;;5021585;28;20188;-64
2022/03/18 05:43:43;;;;;;;12.27;6.13;;;;;;;;;;5018860;28;20191;-65
2022/03/18 05:46:09;;;;;;;11.50;5.67;;;;;;;;;;5021784;28;20177;-65
2022/03/18 05:48:34;;;;;;;7.90;5.00;;;;;;;;;;5022602;28;20434;-65
2022/03/18 05:51:00;;;;;;;8.50;5.33;;;;;;;;;;5024969;28;20176;-65
2022/03/18 05:53:26;;;;;;;10.87;5.50;;;;;;;;;;5019409;28;20193;-65
2022/03/18 05:58:35;;;;;;;9.70;5.57;;;;;;;;;;5023934;28;20326;-65
2022/03/18 06:01:00;;;;;;;11.80;5.23;;;;;;;;;;5020549;28;21007;-65
2022/03/18 06:03:25;;;;;;;9.47;6.00;;;;;;;;;;5018706;28;20207;-65
2022/03/18 06:05:51;;;;;;;10.77;6.00;;;;;;;;;;5010919;28;20254;-65
2022/03/18 06:13:44;;;;;;;9.80;6.00;;;;;;;;;;5021573;28;20954;-65
2022/03/18 06:16:09;;;;;;;8.90;5.47;;;;;;;;;;5016462;28;20435;-65
2022/03/18 06:18:34;;;;;;;12.00;5.87;;;;;;;;;;5018333;28;20168;-65
2022/03/18 06:21:00;;;;;;;13.87;5.93;;;;;;;;;;5015222;28;20246;-65
2022/03/18 06:23:26;;;;;;;10.60;6.30;;;;;;;;;;5005040;28;20259;-68
2022/03/18 06:25:51;;;;;;;12.20;5.87;;;;;;;;;;5005717;28;20204;-68
2022/03/18 06:28:17;;;;;;;9.77;5.30;;;;;;;;;;5009367;28;20514;-67
2022/03/18 06:30:42;;;;;;;9.63;4.70;;;;;;;;;;5009366;28;20257;-67
2022/03/18 06:33:08;;;;;;;12.23;6.27;;;;;;;;;;4994182;28;20207;-67
2022/03/18 06:35:33;;;;;;;10.73;5.70;;;;;;;;;;5010700;28;20715;-68
2022/03/18 06:37:58;;;;;;;10.07;5.47;;;;;;;;;;5004942;28;20184;-67
2022/03/18 06:40:24;;;;;;;11.67;5.93;;;;;;;;;;5011694;28;20653;-68
2022/03/18 06:42:49;;;;;;;8.47;5.90;;;;;;;;;;5009403;28;21120;-68
2022/03/18 06:45:14;;;;;;;10.87;5.53;;;;;;;;;;5010599;28;20211;-68
2022/03/18 06:47:40;;;;;;;10.37;6.13;;;;;;;;;;5014986;28;20263;-67
2022/03/18 06:50:05;;;;;;;10.53;6.80;;;;;;;;;;5010410;28;20219;-67
2022/03/18 06:52:30;;;;;;;9.53;5.90;;;;;;;;;;5007290;28;20208;-68
2022/03/18 06:54:56;;;;;;;11.97;6.80;;;;;;;;;;5015048;28;20188;-68
2022/03/18 06:57:21;;;;;;;18.63;6.60;;;;;;;;;;5011717;28;20595;-68
2022/03/18 06:59:46;;;;;;;12.43;7.00;;;;;;;;;;5014581;28;20624;-68
2022/03/18 07:02:13;;;;;;;13.50;7.13;;;;;;;;;;5002139;28;20219;-68
2022/03/18 07:04:39;;;;;;;10.60;7.10;;;;;;;;;;5005244;28;20756;-67
2022/03/18 07:07:04;;;;;;;13.23;6.90;;;;;;;;;;5014547;28;20520;-68
2022/03/18 07:09:30;;;;;;;14.93;6.90;;;;;;;;;;5010823;28;20192;-67
2022/03/18 07:11:55;;;;;;;12.47;7.10;;;;;;;;;;5012354;28;20234;-67
2022/03/18 07:14:20;;;;;;;14.50;7.07;;;;;;;;;;5013919;28;20287;-67
2022/03/18 07:19:49;;;;;;;15.60;7.50;;;;;;;;;;4981218;28;20647;-67
2022/03/18 07:22:14;;;;;;;11.20;6.10;;;;;;;;;;4980995;28;20862;-68
2022/03/18 07:24:40;;;;;;;16.87;7.87;;;;;;;;;;4992674;28;20584;-68
2022/03/18 07:27:05;;;;;;;11.20;7.80;;;;;;;;;;5012356;28;20254;-67
2022/03/18 07:29:31;;;;;;;18.20;7.67;;;;;;;;;;5014704;28;20185;-67
2022/03/18 07:31:57;;;;;;;9.30;7.17;;;;;;;;;;5020442;22;20208;-73
2022/03/18 07:34:22;;;;;;;15.77;8.63;;;;;;;;;;5006189;28;20181;-73
2022/03/18 07:36:48;;;;;;;21.00;7.83;;;;;;;;;;5014639;28;20465;-73
2022/03/18 07:39:13;;;;;;;13.03;7.37;;;;;;;;;;5011688;28;20180;-73
2022/03/18 07:41:39;;;;;;;16.73;7.30;;;;;;;;;;5006151;28;20585;-71
2022/03/18 07:44:04;;;;;;;18.03;9.40;;;;;;;;;;5015246;28;20203;-71
2022/03/18 07:46:29;;;;;;;17.40;8.10;;;;;;;;;;5006101;28;20310;-72
2022/03/18 07:48:55;;;;;;;15.70;8.57;;;;;;;;;;5014659;28;20900;-71
2022/03/18 07:51:20;;;;;;;15.73;8.50;;;;;;;;;;5014873;28;20582;-71
2022/03/18 07:53:45;;;;;;;15.30;9.03;;;;;;;;;;5014217;28;20209;-71
2022/03/18 07:56:10;;;;;;;17.20;8.77;;;;;;;;;;5013789;28;20288;-71
2022/03/18 07:58:36;;;;;;;11.77;8.30;;;;;;;;;;5017282;28;20181;-71
2022/03/18 08:01:01;;;;;;;15.43;8.47;;;;;;;;;;5011905;28;20193;-71
2022/03/18 08:03:26;;;;;;;19.70;8.97;;;;;;;;;;5018062;28;20243;-71
2022/03/18 08:05:52;;;;;;;16.93;8.40;;;;;;;;;;5014093;28;20749;-71
2022/03/18 08:08:18;;;;;;;26.33;10.20;;;;;;;;;;5015299;28;20187;-71
2022/03/18 08:10:43;;;;;;;18.30;8.77;;;;;;;;;;5016600;28;20204;-72
2022/03/18 08:13:08;;;;;;;17.20;9.57;;;;;;;;;;5018369;28;20629;-72
2022/03/18 08:15:34;;;;;;;16.50;9.03;;;;;;;;;;5008673;28;20184;-71
2022/03/18 08:17:59;;;;;;;18.83;9.27;;;;;;;;;;5015055;28;21056;-72
2022/03/18 08:20:25;;;;;;;18.27;9.30;;;;;;;;;;5001396;28;20189;-71
2022/03/18 08:22:51;;;;;;;18.93;9.00;;;;;;;;;;5014893;28;20602;-71
2022/03/18 08:25:16;;;;;;;19.00;10.27;;;;;;;;;;5009912;28;20291;-71
2022/03/18 08:27:42;;;;;;;18.13;8.90;;;;;;;;;;5018688;28;20259;-71
2022/03/18 08:30:08;;;;;;;16.47;8.73;;;;;;;;;;5002335;28;20285;-71
2022/03/18 08:32:34;;;;;;;18.23;8.80;;;;;;;;;;5012218;28;20216;-71
2022/03/18 08:34:59;;;;;;;17.77;8.93;;;;;;;;;;5013122;28;20446;-71
2022/03/18 08:40:10;;;;;;;15.07;8.57;;;;;;;;;;5015136;28;20195;-71
2022/03/18 08:42:35;;;;;;;19.53;9.17;;;;;;;;;;5017627;28;20451;-71
2022/03/18 08:45:01;;;;;;;14.70;8.30;;;;;;;;;;5007755;28;20467;-71
2022/03/18 08:47:26;;;;;;;21.50;9.67;;;;;;;;;;5014229;28;20672;-70
2022/03/18 08:49:52;;;;;;;16.80;9.37;;;;;;;;;;5011923;28;20553;-70
2022/03/18 08:52:17;;;;;;;18.37;9.17;;;;;;;;;;5015678;28;20628;-70
2022/03/18 08:54:42;;;;;;;17.10;9.60;;;;;;;;;;5012365;28;20188;-70
2022/03/18 08:57:08;;;;;;;14.97;9.00;;;;;;;;;;5013649;28;20211;-70
2022/03/18 08:59:33;;;;;;;21.07;8.27;;;;;;;;;;5007723;28;20204;-70
2022/03/18 09:01:58;;;;;;;19.53;9.63;;;;;;;;;;5014937;28;20271;-70
2022/03/18 09:04:24;;;;;;;17.33;9.23;;;;;;;;;;5017232;28;20200;-70
2022/03/18 09:06:49;;;;;;;23.53;8.87;;;;;;;;;;5013404;28;20187;-70
2022/03/18 09:09:14;;;;;;;27.13;10.10;;;;;;;;;;5017759;28;20620;-70
2022/03/18 09:11:41;;;;;;;16.53;8.97;;;;;;;;;;5012886;28;20180;-70
2022/03/18 09:14:07;;;;;;;16.20;9.70;;;;;;;;;;5017101;28;20270;-70
2022/03/18 09:16:36;;;;;;;24.60;10.07;;;;;;;;;;5013570;28;21124;-70
2022/03/18 09:19:02;;;;;;;18.67;8.97;;;;;;;;;;5010399;28;20193;-70
2022/03/18 09:21:27;;;;;;;18.97;10.00;;;;;;;;;;5009405;28;20454;-70
2022/03/18 09:23:52;;;;;;;14.00;8.57;;;;;;;;;;5017830;28;20275;-70
2022/03/18 09:26:18;;;;;;;23.30;9.43;;;;;;;;;;5011787;28;20200;-70
2022/03/18 09:28:43;;;;;;;16.27;8.87;;;;;;;;;;5016679;28;21232;-70
2022/03/18 09:31:08;;;;;;;18.27;8.30;;;;;;;;;;5016196;28;20426;-70
2022/03/18 09:33:35;;;;;;;18.97;8.77;;;;;;;;;;5012526;28;20216;-70
2022/03/18 09:36:00;;;;;;;12.80;8.07;;;;;;;;;;5017808;28;20192;-70
2022/03/18 09:38:25;;;;;;;20.83;8.70;;;;;;;;;;5013855;28;20445;-70
2022/03/18 09:40:51;;;;;;;16.13;8.10;;;;;;;;;;5014464;28;20177;-70
2022/03/18 09:43:17;;;;;;;17.70;8.47;;;;;;;;;;5011634;28;20606;-70
2022/03/18 09:45:43;;;;;;;15.83;8.43;;;;;;;;;;5012297;28;20702;-70
2022/03/18 09:48:10;;;;;;;22.30;10.07;;;;;;;;;;5019410;28;20507;-70
2022/03/18 09:50:36;;;;;;;15.93;8.50;;;;;;;;;;5013151;28;20181;-70
2022/03/18 09:53:01;;;;;;;23.73;9.20;;;;;;;;;;5012444;28;20447;-70
2022/03/18 09:55:30;;;;;;;22.63;8.00;;;;;;;;;;5001930;28;20474;-70
2022/03/18 09:57:55;;;;;;;19.90;7.73;;;;;;;;;;5016809;28;20652;-70
2022/03/18 10:00:22;;;;;;;19.20;7.40;;;;;;;;;;5009188;28;20516;-70
2022/03/18 10:03:05;;;;;;;15.17;8.03;;;;;;;;;;5010548;28;20459;-70
2022/03/18 10:05:31;;;;;;;17.50;8.23;;;;;;;;;;5007076;28;20281;-71
2022/03/18 10:07:58;;;;;;;19.97;7.93;;;;;;;;;;5015020;28;20485;-71
2022/03/18 10:10:24;;;;;;;16.20;6.97;;;;;;;;;;5008834;28;20462;-71
2022/03/18 10:12:51;;;;;;;24.60;7.27;;;;;;;;;;5013195;28;20467;-70
2022/03/18 10:15:22;;;;;;;17.90;8.13;;;;;;;;;;5010709;28;20858;-71
2022/03/18 10:17:54;;;;;;;24.17;8.10;;;;;;;;;;5013687;28;20497;-70
2022/03/18 10:20:26;;;;;;;16.80;7.93;;;;;;;;;;5006965;28;20443;-71
2022/03/18 10:22:52;;;;;;;20.40;8.20;;;;;;;;;;5016531;28;20954;-71
2022/03/18 10:25:37;;;;;;;19.70;8.70;;;;;;;;;;5016635;28;20525;-71
2022/03/18 10:28:06;;;;;;;13.93;7.63;;;;;;;;;;5016051;28;20897;-71
2022/03/18 10:30:32;;;;;;;17.67;8.53;;;;;;;;;;5011068;28;20442;-70
2022/03/18 10:32:58;;;;;;;13.60;7.80;;;;;;;;;;5008857;28;20470;-70
2022/03/18 10:38:28;;;;;;;17.47;8.57;;;;;;;;;;5014378;28;20228;-70
2022/03/18 10:40:54;;;;;;;18.80;8.43;;;;;;;;;;5012347;28;20442;-70
2022/03/18 10:43:20;;;;;;;15.13;7.80;;;;;;;;;;5015214;28;20455;-70
2022/03/18 10:45:59;;;;;;;15.07;7.37;;;;;;;;;;5012372;28;20494;-70
2022/03/18 10:48:24;;;;;;;13.00;6.87;;;;;;;;;;5016657;28;20789;-70
2022/03/18 10:51:00;;;;;;;17.33;7.30;;;;;;;;;;5017497;28;20470;-70
2022/03/18 10:53:30;;;;;;;18.13;7.10;;;;;;;;;;5015270;28;20543;-70
2022/03/18 10:55:59;;;;;;;17.00;6.90;;;;;;;;;;5011464;28;20829;-70
2022/03/18 10:58:24;;;;;;;14.10;7.50;;;;;;;;;;5027244;28;20469;-70
2022/03/18 11:00:54;;;;;;;15.63;7.13;;;;;;;;;;5014312;28;20534;-70
2022/03/18 11:03:21;;;;;;;17.47;6.73;;;;;;;;;;5015560;28;20235;-70
2022/03/18 11:05:47;;;;;;;20.13;6.63;;;;;;;;;;5011028;28;20471;-70
2022/03/18 11:08:14;;;;;;;12.27;7.10;;;;;;;;;;5014317;28;20496;-70
2022/03/18 11:13:27;;;;;;;16.37;7.53;;;;;;;;;;5015431;28;20450;-71
2022/03/18 11:15:53;;;;;;;11.67;7.10;;;;;;;;;;5013556;28;20458;-71
2022/03/18 11:18:19;;;;;;;14.83;7.50;;;;;;;;;;5014855;28;20447;-70
2022/03/18 11:20:45;;;;;;;18.03;6.37;;;;;;;;;;5018968;28;20449;-71
2022/03/18 11:23:15;;;;;;;16.47;6.87;;;;;;;;;;5015161;28;20675;-71
2022/03/18 11:25:40;;;;;;;14.50;7.40;;;;;;;;;;5019276;28;20466;-70
2022/03/18 11:28:06;;;;;;;14.30;6.93;;;;;;;;;;5013256;28;20435;-70
2022/03/18 11:30:35;;;;;;;22.27;6.90;;;;;;;;;;5017662;28;20188;-70
2022/03/18 11:33:10;;;;;;;17.70;8.20;;;;;;;;;;5010219;28;20677;-71
2022/03/18 11:35:47;;;;;;;18.30;7.00;;;;;;;;;;5013306;28;20440;-70
2022/03/18 11:38:14;;;;;;;15.53;7.50;;;;;;;;;;5009057;28;21261;-71
2022/03/18 11:40:50;;;;;;;12.03;6.80;;;;;;;;;;5011182;28;21228;-71
2022/03/18 11:43:31;;;;;;;12.67;7.43;;;;;;;;;;5014461;28;20458;-71
2022/03/18 11:46:17;;;;;;;16.40;6.97;;;;;;;;;;5015438;28;20966;-70
2022/03/18 11:48:44;;;;;;;19.43;6.67;;;;;;;;;;5010480;28;20466;-71
2022/03/18 11:51:29;;;;;;;11.97;7.20;;;;;;;;;;5009963;28;21077;-70
2022/03/18 11:53:59;;;;;;;20.73;6.77;;;;;;;;;;5012649;28;20467;-71
2022/03/18 11:56:44;;;;;;;21.17;6.97;;;;;;;;;;5016142;28;20427;-71
2022/03/18 11:59:24;;;;;;;18.70;6.63;;;;;;;;;;5007545;28;20434;-71
2022/03/18 12:01:59;;;;;;;17.17;6.20;;;;;;;;;;5015577;28;20459;-71
2022/03/18 12:04:33;;;;;;;21.57;6.07;;;;;;;;;;5013853;28;20498;-72
2022/03/18 12:07:51;;;;;;;18.43;7.17;;;;;;;;;;5008614;28;20434;-71
2022/03/18 12:10:11;;;;;;;14.63;6.30;;;;;;;;;;5013617;28;22816;-71
2022/03/18 12:12:38;;;;;;;15.90;6.43;;;;;;;;;;5008267;28;20458;-71
2022/03/18 12:15:08;;;;;;;10.60;6.10;;;;;;;;;;5012481;28;20443;-71
2022/03/18 12:17:41;;;;;;;21.30;6.87;;;;;;;;;;5007061;28;20432;-71
2022/03/18 12:20:09;;;;;;;18.80;6.87;;;;;;;;;;5009466;28;21042;-72
2022/03/18 12:22:37;;;;;;;12.13;6.60;;;;;;;;;;5010414;28;20806;-71
2022/03/18 12:25:03;;;;;;;20.77;7.23;;;;;;;;;;5016755;28;20481;-70
2022/03/18 12:27:30;;;;;;;14.90;6.57;;;;;;;;;;5018270;28;20589;-71
2022/03/18 12:29:58;;;;;;;19.53;7.13;;;;;;;;;;5012288;28;20446;-71
2022/03/18 12:32:24;;;;;;;17.10;5.70;;;;;;;;;;5021094;28;20459;-71
2022/03/18 12:34:50;;;;;;;19.90;7.10;;;;;;;;;;5018646;28;20434;-71
2022/03/18 12:37:19;;;;;;;18.10;7.37;;;;;;;;;;5033205;28;20992;-70
2022/03/18 12:39:45;;;;;;;14.67;6.40;;;;;;;;;;5019661;28;20442;-71
2022/03/18 12:42:11;;;;;;;16.47;5.87;;;;;;;;;;5019797;28;20455;-71
2022/03/18 12:44:37;;;;;;;21.60;5.60;;;;;;;;;;5015098;28;20236;-71
2022/03/18 12:47:05;;;;;;;15.60;5.43;;;;;;;;;;5017755;28;21544;-71
2022/03/18 12:49:40;;;;;;;9.90;4.30;;;;;;;;;;5017218;28;20185;-71
2022/03/18 12:52:09;;;;;;;15.70;5.50;;;;;;;;;;5009927;28;21025;-71
2022/03/18 12:54:34;;;;;;;11.97;4.80;;;;;;;;;;5014412;28;20453;-71
2022/03/18 12:57:02;;;;;;;15.10;5.20;;;;;;;;;;5013850;28;20427;-71
2022/03/18 12:59:27;;;;;;;12.70;4.70;;;;;;;;;;5000092;28;20466;-72
2022/03/18 13:01:54;;;;;;;10.50;4.17;;;;;;;;;;5018306;28;20825;-72
2022/03/18 13:04:20;;;;;;;13.77;4.17;;;;;;;;;;5023653;28;20216;-71
2022/03/18 13:06:46;;;;;;;13.30;3.80;;;;;;;;;;5002621;28;20446;-71
2022/03/18 13:09:15;;;;;;;10.17;4.03;;;;;;;;;;5004405;28;20469;-72
2022/03/18 13:11:41;;;;;;;14.30;4.57;;;;;;;;;;5013352;28;20495;-71
2022/03/18 13:14:06;;;;;;;13.57;4.53;;;;;;;;;;5016646;28;20443;-71
2022/03/18 13:16:39;;;;;;;12.77;5.10;;;;;;;;;;5010646;28;20229;-72
2022/03/18 13:19:07;;;;;;;12.85;4.00;;;;;;;;;;5014356;28;20177;-72
2022/03/18 13:21:45;;;;;;;13.37;4.43;;;;;;;;;;5012941;28;20521;-72
2022/03/18 13:24:14;;;;;;;19.03;4.80;;;;;;;;;;5006137;28;20470;-72
2022/03/18 13:26:43;;;;;;;18.33;4.83;;;;;;;;;;5012646;28;20991;-71
2022/03/18 13:29:09;;;;;;;24.00;4.83;;;;;;;;;;4994894;28;20431;-74
2022/03/18 13:34:32;;;;;;;13.03;3.90;;;;;;;;;;5006292;28;20262;-72
2022/03/18 13:37:11;;;;;;;11.07;4.00;;;;;;;;;;5033250;28;20435;-73
2022/03/18 13:39:36;;;;;;;12.43;4.53;;;;;;;;;;5007854;28;20864;-73
2022/03/18 13:42:01;;;;;;;14.37;3.77;;;;;;;;;;5007456;28;20447;-74
2022/03/18 13:44:42;;;;;;;13.03;3.70;;;;;;;;;;5000690;28;20513;-72
2022/03/18 13:47:07;;;;;;;14.60;4.00;;;;;;;;;;5013935;28;20250;-72
2022/03/18 13:49:34;;;;;;;13.57;4.00;;;;;;;;;;5011083;28;20423;-73
2022/03/18 13:52:00;;;;;;;15.37;3.73;;;;;;;;;;5015482;28;20661;-72
2022/03/18 13:54:25;;;;;;;15.60;4.00;;;;;;;;;;4996954;28;21316;-72
2022/03/18 13:56:58;;;;;;;14.07;3.33;;;;;;;;;;4996992;28;20435;-73
2022/03/18 13:59:23;;;;;;;22.87;4.40;;;;;;;;;;5002022;28;20188;-71
2022/03/18 14:02:02;;;;;;;16.90;3.80;;;;;;;;;;5007952;28;21006;-72
2022/03/18 14:04:44;;;;;;;20.20;4.47;;;;;;;;;;5004275;28;20283;-73
2022/03/18 14:07:13;;;;;;;18.37;5.00;;;;;;;;;;5003505;28;20453;-71
2022/03/18 14:09:51;;;;;;;12.50;4.30;;;;;;;;;;5008924;28;20513;-70
2022/03/18 14:12:17;;;;;;;19.73;3.93;;;;;;;;;;5012276;28;20989;-71
2022/03/18 14:14:43;;;;;;;15.63;3.63;;;;;;;;;;5015839;28;20506;-71
2022/03/18 14:17:14;;;;;;;8.50;3.80;;;;;;;;;;5021393;28;20430;-72
2022/03/18 14:19:48;;;;;;;14.30;3.97;;;;;;;;;;5016282;28;20181;-71
2022/03/18 14:22:30;;;;;;;18.63;3.80;;;;;;;;;;5011666;28;20919;-73
2022/03/18 14:24:55;;;;;;;15.60;3.33;;;;;;;;;;5012748;28;20474;-72
2022/03/18 14:27:21;;;;;;;10.30;2.83;;;;;;;;;;5011258;28;20431;-72
2022/03/18 14:29:46;;;;;;;10.60;3.23;;;;;;;;;;5016004;28;20181;-71
2022/03/18 14:32:12;;;;;;;12.60;3.20;;;;;;;;;;5010646;28;20578;-71
2022/03/18 14:34:37;;;;;;;10.60;2.90;;;;;;;;;;5032047;28;20188;-72
2022/03/18 14:37:03;;;;;;;15.60;3.47;;;;;;;;;;5005322;28;20652;-71
2022/03/18 14:39:28;;;;;;;14.43;2.80;;;;;;;;;;5014447;28;20188;-72
2022/03/18 14:41:53;;;;;;;13.43;3.50;;;;;;;;;;5008177;28;20368;-72
2022/03/18 14:44:18;;;;;;;19.10;3.77;;;;;;;;;;5010752;28;21410;-72
2022/03/18 14:46:44;;;;;;;11.80;3.30;;;;;;;;;;5008531;28;20189;-70
2022/03/18 14:49:09;;;;;;;11.87;2.80;;;;;;;;;;5008327;28;20195;-72
2022/03/18 14:51:34;;;;;;;15.73;2.90;;;;;;;;;;5011037;28;20176;-71
2022/03/18 14:54:00;;;;;;;9.27;2.90;;;;;;;;;;5007834;28;20204;-72
2022/03/18 14:56:28;;;;;;;10.40;2.40;;;;;;;;;;5003468;28;20180;-70
2022/03/18 14:58:53;;;;;;;12.87;3.03;;;;;;;;;;5008665;28;20579;-71